HJ420 LFCG-LFCU
Flight info
| Callsign | HJ420 |
|---|---|
| Flight time | 0h 31m |
| Altitude | 30000 |
| Route | GAI |
| Aircraft | HDJT/L-SABDGRWY/H |
Departure
| Time | 2026-05-07 09:34 |
|---|---|
| Airport | Aérodrome de Saint-Girons - Antichan (LFCG) |
Arrival
| Time | 2026-05-07 10:06 |
|---|---|
| Airport | Ussel-Thalamy Airfield (LFCU) |
| Time | Latitude | Longitude | Altitude | Speed | Heading |
|---|---|---|---|---|---|
| 2026-05-07 09:34 | 43.19832 | 1.09689 | 12374 ft | 254 kts | 1° |
| 2026-05-07 09:34 | 43.21631 | 1.09802 | 13320 ft | 260 kts | 2° |
| 2026-05-07 09:35 | 43.23457 | 1.09923 | 14229 ft | 266 kts | 2° |
| 2026-05-07 09:35 | 43.27429 | 1.10194 | 16147 ft | 273 kts | 2° |
| 2026-05-07 09:35 | 43.29349 | 1.10323 | 16972 ft | 283 kts | 2° |
| 2026-05-07 09:36 | 43.31441 | 1.10463 | 17023 ft | 319 kts | 2° |
| 2026-05-07 09:36 | 43.33766 | 1.10620 | 17028 ft | 349 kts | 2° |
| 2026-05-07 09:36 | 43.35389 | 1.10725 | 17030 ft | 351 kts | 2° |
| 2026-05-07 09:36 | 43.37807 | 1.10892 | 17032 ft | 347 kts | 2° |
| 2026-05-07 09:37 | 43.40238 | 1.11068 | 17028 ft | 352 kts | 2° |
| 2026-05-07 09:37 | 43.42695 | 1.11235 | 17036 ft | 354 kts | 2° |
| 2026-05-07 09:37 | 43.45165 | 1.11398 | 17029 ft | 355 kts | 2° |
| 2026-05-07 09:37 | 43.47639 | 1.11567 | 17029 ft | 356 kts | 2° |
| 2026-05-07 09:38 | 43.50108 | 1.11737 | 17026 ft | 353 kts | 2° |
| 2026-05-07 09:38 | 43.52549 | 1.11902 | 17026 ft | 349 kts | 2° |
| 2026-05-07 09:38 | 43.54964 | 1.12066 | 17026 ft | 346 kts | 2° |
| 2026-05-07 09:38 | 43.57364 | 1.12231 | 17025 ft | 345 kts | 2° |
| 2026-05-07 09:39 | 43.59756 | 1.12395 | 17042 ft | 344 kts | 2° |
| 2026-05-07 09:39 | 43.62153 | 1.12558 | 17042 ft | 346 kts | 2° |
| 2026-05-07 09:39 | 43.64559 | 1.12723 | 17044 ft | 347 kts | 2° |
| 2026-05-07 09:39 | 43.66972 | 1.12889 | 17044 ft | 348 kts | 2° |
| 2026-05-07 09:40 | 43.69389 | 1.13055 | 17044 ft | 348 kts | 2° |
| 2026-05-07 09:40 | 43.71813 | 1.13221 | 17043 ft | 349 kts | 2° |
| 2026-05-07 09:40 | 43.74236 | 1.13387 | 17043 ft | 349 kts | 2° |
| 2026-05-07 09:40 | 43.76667 | 1.13555 | 17042 ft | 349 kts | 2° |
| 2026-05-07 09:41 | 43.79100 | 1.13722 | 17039 ft | 350 kts | 2° |
| 2026-05-07 09:41 | 43.81533 | 1.13890 | 17037 ft | 350 kts | 2° |
| 2026-05-07 09:41 | 43.83965 | 1.14057 | 17037 ft | 350 kts | 2° |
| 2026-05-07 09:41 | 43.86397 | 1.14226 | 17035 ft | 350 kts | 2° |
| 2026-05-07 09:42 | 43.88796 | 1.14391 | 17032 ft | 350 kts | 2° |
| 2026-05-07 09:42 | 43.91227 | 1.14559 | 17024 ft | 350 kts | 2° |
| 2026-05-07 09:42 | 43.93655 | 1.14823 | 17019 ft | 350 kts | 5° |
| 2026-05-07 09:42 | 43.96074 | 1.15263 | 17017 ft | 350 kts | 7° |
| 2026-05-07 09:43 | 43.98489 | 1.15672 | 17019 ft | 349 kts | 5° |
| 2026-05-07 09:43 | 44.00908 | 1.15996 | 17019 ft | 349 kts | 4° |
| 2026-05-07 09:43 | 44.03326 | 1.16327 | 17022 ft | 349 kts | 5° |
| 2026-05-07 09:43 | 44.05740 | 1.16697 | 17022 ft | 349 kts | 5° |
| 2026-05-07 09:44 | 44.08155 | 1.17068 | 17024 ft | 349 kts | 5° |
| 2026-05-07 09:44 | 44.10575 | 1.17421 | 17024 ft | 349 kts | 5° |
| 2026-05-07 09:44 | 44.12985 | 1.17773 | 17025 ft | 349 kts | 5° |
| 2026-05-07 09:44 | 44.15402 | 1.18134 | 17024 ft | 349 kts | 5° |
| 2026-05-07 09:45 | 44.17785 | 1.18489 | 17022 ft | 349 kts | 5° |
| 2026-05-07 09:45 | 44.20197 | 1.18847 | 17021 ft | 349 kts | 5° |
| 2026-05-07 09:45 | 44.22613 | 1.19206 | 17021 ft | 349 kts | 5° |
| 2026-05-07 09:45 | 44.25026 | 1.19566 | 17022 ft | 349 kts | 5° |
| 2026-05-07 09:46 | 44.27441 | 1.19925 | 17022 ft | 349 kts | 5° |
| 2026-05-07 09:46 | 44.29855 | 1.20285 | 17022 ft | 349 kts | 5° |
| 2026-05-07 09:46 | 44.32273 | 1.20646 | 17022 ft | 349 kts | 5° |
| 2026-05-07 09:46 | 44.34686 | 1.21010 | 17021 ft | 348 kts | 6° |
| 2026-05-07 09:47 | 44.37000 | 1.21970 | 17027 ft | 349 kts | 27° |
| 2026-05-07 09:47 | 44.38956 | 1.23964 | 17029 ft | 349 kts | 43° |
| 2026-05-07 09:47 | 44.40681 | 1.26365 | 17028 ft | 349 kts | 45° |
| 2026-05-07 09:47 | 44.42426 | 1.28725 | 17026 ft | 349 kts | 41° |
| 2026-05-07 09:48 | 44.44321 | 1.30851 | 17024 ft | 349 kts | 37° |
| 2026-05-07 09:48 | 44.46255 | 1.32896 | 17029 ft | 349 kts | 38° |
| 2026-05-07 09:48 | 44.48127 | 1.35051 | 17026 ft | 349 kts | 40° |
| 2026-05-07 09:48 | 44.49971 | 1.37252 | 17028 ft | 348 kts | 40° |
| 2026-05-07 09:49 | 44.51843 | 1.39411 | 17029 ft | 349 kts | 39° |
| 2026-05-07 09:49 | 44.53728 | 1.41547 | 17027 ft | 348 kts | 39° |
| 2026-05-07 09:49 | 44.55602 | 1.43701 | 17027 ft | 348 kts | 39° |
| 2026-05-07 09:49 | 44.57470 | 1.45871 | 17027 ft | 348 kts | 39° |
| 2026-05-07 09:50 | 44.59341 | 1.48035 | 17028 ft | 348 kts | 39° |
| 2026-05-07 09:50 | 44.61188 | 1.50163 | 17027 ft | 349 kts | 39° |
| 2026-05-07 09:50 | 44.63063 | 1.52330 | 17025 ft | 349 kts | 39° |
| 2026-05-07 09:50 | 44.64935 | 1.54500 | 17023 ft | 349 kts | 39° |
| 2026-05-07 09:51 | 44.66808 | 1.56671 | 17022 ft | 349 kts | 39° |
| 2026-05-07 09:51 | 44.68682 | 1.58842 | 17024 ft | 349 kts | 39° |
| 2026-05-07 09:51 | 44.70556 | 1.61017 | 17021 ft | 349 kts | 39° |
| 2026-05-07 09:51 | 44.72450 | 1.63219 | 17022 ft | 349 kts | 39° |
| 2026-05-07 09:52 | 44.74297 | 1.65364 | 17020 ft | 349 kts | 39° |
| 2026-05-07 09:52 | 44.76164 | 1.67537 | 17016 ft | 348 kts | 39° |
| 2026-05-07 09:52 | 44.78032 | 1.69713 | 17016 ft | 348 kts | 39° |
| 2026-05-07 09:52 | 44.79898 | 1.71888 | 17016 ft | 348 kts | 39° |
| 2026-05-07 09:53 | 44.81762 | 1.74063 | 17018 ft | 348 kts | 39° |
| 2026-05-07 09:53 | 44.83624 | 1.76238 | 17019 ft | 348 kts | 39° |
| 2026-05-07 09:53 | 44.85487 | 1.78415 | 17018 ft | 348 kts | 39° |
| 2026-05-07 09:53 | 44.87350 | 1.80593 | 17018 ft | 348 kts | 39° |
| 2026-05-07 09:54 | 44.89211 | 1.82772 | 17016 ft | 348 kts | 39° |
| 2026-05-07 09:54 | 44.91070 | 1.84951 | 17017 ft | 348 kts | 39° |
| 2026-05-07 09:54 | 44.92930 | 1.87131 | 17016 ft | 348 kts | 39° |
| 2026-05-07 09:54 | 44.94790 | 1.89314 | 17016 ft | 348 kts | 39° |
| 2026-05-07 09:55 | 44.96650 | 1.91501 | 17010 ft | 348 kts | 39° |
| 2026-05-07 09:55 | 44.98510 | 1.93689 | 17013 ft | 348 kts | 39° |
| 2026-05-07 09:55 | 45.00479 | 1.95659 | 17013 ft | 346 kts | 32° |
| 2026-05-07 09:55 | 45.02323 | 1.97677 | 16946 ft | 334 kts | 40° |
| 2026-05-07 09:56 | 45.04060 | 1.99948 | 16336 ft | 336 kts | 43° |
| 2026-05-07 09:56 | 45.05739 | 2.02205 | 15486 ft | 314 kts | 41° |
| 2026-05-07 09:56 | 45.07386 | 2.04160 | 14361 ft | 322 kts | 37° |
| 2026-05-07 09:56 | 45.09153 | 2.06126 | 14013 ft | 325 kts | 38° |
| 2026-05-07 09:57 | 45.10888 | 2.08179 | 13576 ft | 324 kts | 40° |
| 2026-05-07 09:57 | 45.12590 | 2.10258 | 13142 ft | 321 kts | 40° |
| 2026-05-07 09:57 | 45.14292 | 2.12292 | 12720 ft | 319 kts | 39° |
| 2026-05-07 09:57 | 45.15990 | 2.14291 | 12303 ft | 317 kts | 39° |
| 2026-05-07 09:58 | 45.17678 | 2.16296 | 11870 ft | 315 kts | 39° |
| 2026-05-07 09:58 | 45.19348 | 2.18295 | 11470 ft | 314 kts | 39° |
| 2026-05-07 09:58 | 45.21017 | 2.20291 | 11055 ft | 313 kts | 40° |
| 2026-05-07 09:58 | 45.22670 | 2.22262 | 10648 ft | 296 kts | 39° |
| 2026-05-07 09:59 | 45.24231 | 2.24123 | 10261 ft | 295 kts | 40° |
| 2026-05-07 09:59 | 45.25795 | 2.25996 | 9869 ft | 294 kts | 40° |
| 2026-05-07 09:59 | 45.27363 | 2.27876 | 9456 ft | 299 kts | 39° |
| 2026-05-07 09:59 | 45.28966 | 2.29793 | 9054 ft | 299 kts | 40° |
| 2026-05-07 10:00 | 45.30543 | 2.31684 | 8662 ft | 294 kts | 40° |
| 2026-05-07 10:00 | 45.32093 | 2.33545 | 8278 ft | 290 kts | 40° |
| 2026-05-07 10:00 | 45.33625 | 2.35384 | 7897 ft | 287 kts | 40° |
| 2026-05-07 10:00 | 45.35143 | 2.37207 | 7522 ft | 284 kts | 40° |
| 2026-05-07 10:01 | 45.36646 | 2.39014 | 7142 ft | 282 kts | 40° |
| 2026-05-07 10:01 | 45.38141 | 2.40812 | 6770 ft | 281 kts | 40° |
| 2026-05-07 10:01 | 45.39625 | 2.42598 | 6398 ft | 275 kts | 40° |
| 2026-05-07 10:01 | 45.41051 | 2.44315 | 6030 ft | 262 kts | 40° |
| 2026-05-07 10:02 | 45.42416 | 2.45960 | 5690 ft | 258 kts | 40° |
| 2026-05-07 10:02 | 45.43784 | 2.47611 | 5350 ft | 253 kts | 40° |
| 2026-05-07 10:02 | 45.45090 | 2.49187 | 5022 ft | 230 kts | 40° |
| 2026-05-07 10:02 | 45.46268 | 2.50610 | 4727 ft | 210 kts | 40° |
| 2026-05-07 10:03 | 45.47399 | 2.51867 | 4439 ft | 201 kts | 28° |
| 2026-05-07 10:03 | 45.48663 | 2.52468 | 4196 ft | 183 kts | 8° |
| 2026-05-07 10:03 | 45.49884 | 2.52445 | 3962 ft | 169 kts | 348° |
| 2026-05-07 10:03 | 45.50963 | 2.51924 | 3746 ft | 156 kts | 332° |
| 2026-05-07 10:04 | 45.51778 | 2.51109 | 3552 ft | 131 kts | 316° |
| 2026-05-07 10:04 | 45.52336 | 2.50193 | 3390 ft | 116 kts | 304° |
| 2026-05-07 10:04 | 45.52706 | 2.49229 | 3244 ft | 108 kts | 292° |
| 2026-05-07 10:04 | 45.52928 | 2.48208 | 3109 ft | 110 kts | 281° |
| 2026-05-07 10:05 | 45.53052 | 2.47141 | 3018 ft | 108 kts | 278° |
| 2026-05-07 10:05 | 45.53169 | 2.46064 | 2843 ft | 112 kts | 279° |
| 2026-05-07 10:05 | 45.53300 | 2.44962 | 2682 ft | 111 kts | 280° |
| 2026-05-07 10:05 | 45.53426 | 2.43887 | 2528 ft | 109 kts | 279° |
| 2026-05-07 10:06 | 45.53545 | 2.42842 | 2426 ft | 95 kts | 279° |
| 2026-05-07 10:06 | 45.53596 | 2.42401 | 2436 ft | 31 kts | 279° |
| 2026-05-07 10:06 | 45.53631 | 2.42117 | 2453 ft | 24 kts | 282° |
| 2026-05-07 10:06 | 45.53644 | 2.42025 | 2452 ft | 8 kts | 290° |
| 2026-05-07 10:07 | 45.53704 | 2.41991 | 2453 ft | 8 kts | 317° |
| 2026-05-07 10:07 | 45.53715 | 2.41973 | 2452 ft | 0 kts | 308° |
| 2026-05-07 10:07 | 45.53734 | 2.41935 | 2457 ft | 3 kts | 298° |
| 2026-05-07 10:07 | 45.53737 | 2.41921 | 2452 ft | 1 kts | 312° |
| 2026-05-07 10:08 | 45.53745 | 2.41918 | 2450 ft | 0 kts | 358° |